WetterOnline ( https://www.wetteronline.de )

Wetter aktuell Alp Spitz

Aktuelles Wetter: Kempten (705m)

6-stündlich | Neueste Meldungen
Ortszeit Temperatur Wetter
Di, 31.01. 19:00 2.4° C bedeckt
Di, 31.01. 13:00 2.3° C bedeckt
Di, 31.01. 7:00 0.1° C bedeckt
Di, 31.01. 1:00 0.2° C bewölkt
Mo, 30.01. 19:00 0.8° C Regen
Mo, 30.01. 13:00 1.5° C leicht bewölkt
Mo, 30.01. 7:00 -2.5° C wolkig
Mo, 30.01. 1:00 -5.2° C wolkenlos
Ortszeit Temperatur Wetter
Di, 31.01. 20:30 1.9° C bedeckt
Di, 31.01. 20:20 1.9° C bedeckt
Di, 31.01. 20:10 1.8° C bedeckt
Di, 31.01. 20:00 1.8° C bedeckt
Di, 31.01. 19:50 1.8° C bedeckt
Di, 31.01. 19:40 1.9° C bedeckt
Di, 31.01. 19:30 1.9° C bedeckt
Di, 31.01. 19:00 2.4° C bedeckt
Di, 31.01. 18:30 2.1° C bedeckt
Di, 31.01. 18:00 2.3° C bewölkt
Di, 31.01. 17:30 2.4° C bewölkt
Ortszeit Relative Feuchte Sichtweite
Di, 31.01. 19:00 66% 50 km
Di, 31.01. 13:00 69% 45 km
Di, 31.01. 7:00 81% 35 km
Di, 31.01. 1:00 90% 19 km
Mo, 30.01. 19:00 83% 28 km
Mo, 30.01. 13:00 58% 45 km
Mo, 30.01. 7:00 74% 26 km
Mo, 30.01. 1:00 86% 12 km
Ortszeit Relative Feuchte Sichtweite
Di, 31.01. 20:30 70% 40 km
Di, 31.01. 20:20 70% -
Di, 31.01. 20:10 71% -
Di, 31.01. 20:00 73% 35 km
Di, 31.01. 19:50 73% -
Di, 31.01. 19:40 73% -
Di, 31.01. 19:30 71% 35 km
Di, 31.01. 19:00 66% 50 km
Di, 31.01. 18:30 73% 35 km
Di, 31.01. 18:00 72% 30 km
Di, 31.01. 17:30 71% 40 km
Ortszeit Niederschlagsmenge Niederschlagsart
Di, 31.01. 19:00 0.1 l/m2 in 12 Std. Schnee
Di, 31.01. 13:00 0.0 l/m2 in 6 Std. -
Di, 31.01. 7:00 0.1 l/m2 in 12 Std. -
Di, 31.01. 1:00 0.1 l/m2 in 6 Std. Schnee
Mo, 30.01. 19:00 0.9 l/m2 in 12 Std. Schnee, Regen
Mo, 30.01. 13:00 0.0 l/m2 in 6 Std. -
Mo, 30.01. 7:00 0.0 l/m2 in 12 Std. -
Mo, 30.01. 1:00 0.0 l/m2 in 6 Std. -
Ortszeit Niederschlagsmenge Niederschlagsart
Di, 31.01. 20:30 0.0 l/m2 in 30 Min -
Di, 31.01. 20:20 keine Meldung -
Di, 31.01. 20:10 keine Meldung -
Di, 31.01. 20:00 0.0 l/m2 in 1 Std. -
Di, 31.01. 19:50 keine Meldung -
Di, 31.01. 19:40 keine Meldung -
Di, 31.01. 19:30 0.0 l/m2 in 30 Min -
Di, 31.01. 19:00 <0.05 l/m2 in 1 Std. Schnee
Di, 31.01. 18:30 <0.05 l/m2 in 30 Min gefrierender Regen
Di, 31.01. 18:00 <0.05 l/m2 in 1 Std. gefrierender Regen
Di, 31.01. 17:30 0.0 l/m2 in 30 Min -
Ortszeit Stärke Spitze Richtung
km/h Bft. km/h Grad Sektor
Di, 31.01. 19:00 14 3 36 230° SW
Di, 31.01. 13:00 13 3 31 250° W
Di, 31.01. 7:00 11 2 30 230° SW
Di, 31.01. 1:00 11 2 40 250° W
Mo, 30.01. 19:00 17 3 46 250° W
Mo, 30.01. 13:00 14 3 40 220° SW
Mo, 30.01. 7:00 7 2 36 190° S
Mo, 30.01. 1:00 9 2 20 160° S
Ortszeit Stärke Spitze Richtung
km/h Bft. km/h Grad Sektor
Di, 31.01. 20:30 11 2 22 270° W
Di, 31.01. 20:20 11 2 - 270° W
Di, 31.01. 20:10 9 2 - 260° W
Di, 31.01. 20:00 11 2 35 250° W
Di, 31.01. 19:50 11 2 - 250° W
Di, 31.01. 19:40 11 2 - 240° SW
Di, 31.01. 19:30 14 3 36 230° SW
Di, 31.01. 19:00 14 3 29 230° SW
Di, 31.01. 18:30 11 2 28 230° SW
Di, 31.01. 18:00 13 3 28 230° SW
Di, 31.01. 17:30 13 3 28 230° SW
Ortszeit Untergrenze Bedeckung Gattung
total tief tief mittel hoch
Di, 31.01. 19:00 2100 m 8/8 8/8 - - -
Di, 31.01. 13:00 2700 m 8/8 8/8 - - -
Di, 31.01. 7:00 1380 m 8/8 8/8 - - -
Di, 31.01. 1:00 240 m 7/8 7/8 - - -
Mo, 30.01. 19:00 510 m 8/8 8/8 - - -
Mo, 30.01. 13:00 2100 m 4/8 4/8 - - -
Mo, 30.01. 7:00 3900 m 6/8 2/8 - - -
Mo, 30.01. 1:00 - 0/8 0/8 - - -
Ortszeit Bedeckungsgrad in Achtel und Wolkenuntergrenze
Di, 31.01. 20:30 8(1500m)
Di, 31.01. 20:20 8(1500m)
Di, 31.01. 20:10 8
Di, 31.01. 20:00 8(1800m)
Di, 31.01. 19:50 8(1800m)
Di, 31.01. 19:40 8
Di, 31.01. 19:30 8(1800m)
Di, 31.01. 19:00 8(2100m)
Di, 31.01. 18:30 8(1800m)
Di, 31.01. 18:00 1(1230m) 7(1800m)
Di, 31.01. 17:30 7(1800m)
Ortszeit Luftdruck NN (hPa) Tendenz (hPa in 3 Std.)
Di, 31.01. 19:00 1028 + 0,9
Di, 31.01. 13:00 1028 - 1,2
Di, 31.01. 7:00 1030 + 1,0
Di, 31.01. 1:00 1029 + 0,5
Mo, 30.01. 19:00 1027 + 2,9
Mo, 30.01. 13:00 1023 - 2,1
Mo, 30.01. 7:00 1026 - 0,7
Mo, 30.01. 1:00 1028 - 1,6
Ortszeit Luftdruck NN (hPa) Tendenz (hPa in 3 Std.)
Di, 31.01. 20:30 1028 + 0,7
Di, 31.01. 20:20 1028 keine Meldung
Di, 31.01. 20:10 1028 keine Meldung
Di, 31.01. 20:00 1028 + 0,9
Di, 31.01. 19:50 1028 keine Meldung
Di, 31.01. 19:40 1028 keine Meldung
Di, 31.01. 19:30 1028 + 0,7
Di, 31.01. 19:00 1028 + 0,9
Di, 31.01. 18:30 1028 + 0,5
Di, 31.01. 18:00 1028 + 0,3
Di, 31.01. 17:30 1027 - 0,1
Ortszeit Schneehöhe (cm)
Di, 31.01. 19:00 -
Di, 31.01. 13:00 2
Di, 31.01. 7:00 3
Di, 31.01. 1:00 3
Mo, 30.01. 19:00 3
Mo, 30.01. 13:00 2
Mo, 30.01. 7:00 2
Mo, 30.01. 1:00 2
Ortszeit Schneehöhe (cm)
Di, 31.01. 20:30 -
Di, 31.01. 20:20 -
Di, 31.01. 20:10 -
Di, 31.01. 20:00 -
Di, 31.01. 19:50 -
Di, 31.01. 19:40 -
Di, 31.01. 19:30 -
Di, 31.01. 19:00 -
Di, 31.01. 18:30 -
Di, 31.01. 18:00 -
Di, 31.01. 17:30 -
Link zu dieser Seite / Seite empfehlen

Das Wetter in ...